createdAt,value
2023-01-06T00:02:50.306Z,15.33
2023-01-06T00:07:52.326Z,16.47
2023-01-06T00:12:55.443Z,17.17
2023-01-06T00:17:57.126Z,16.87
2023-01-06T00:22:58.802Z,17.97
2023-01-06T00:28:01.813Z,17.73
2023-01-06T00:33:03.626Z,19.70
2023-01-06T00:38:05.339Z,16.90
2023-01-06T00:43:08.432Z,17.63
2023-01-06T00:48:10.152Z,17.40
2023-01-06T00:53:12.057Z,16.00
2023-01-06T00:58:15.107Z,16.40
2023-01-06T01:03:16.911Z,15.47
2023-01-06T01:08:18.588Z,14.73
2023-01-06T01:13:21.572Z,13.97
2023-01-06T01:18:23.467Z,14.40
2023-01-06T01:23:25.123Z,12.87
2023-01-06T01:28:28.186Z,12.50
2023-01-06T01:33:30.012Z,12.00
2023-01-06T01:38:31.715Z,12.40
2023-01-06T01:43:45.184Z,11.80
2023-01-06T01:48:46.855Z,13.20
2023-01-06T01:53:49.895Z,12.40
2023-01-06T01:58:54.399Z,12.17
2023-01-06T02:03:56.056Z,12.50
2023-01-06T02:09:01.865Z,12.87
2023-01-06T02:14:09.846Z,13.00
2023-01-06T02:19:20.023Z,12.97
2023-01-06T02:24:45.037Z,12.80
2023-01-06T02:30:26.486Z,13.10
2023-01-06T02:35:50.678Z,12.83
2023-01-06T02:41:00.327Z,11.23
2023-01-06T02:46:07.961Z,15.00
2023-01-06T02:51:14.049Z,11.40
2023-01-06T02:56:15.733Z,12.00
2023-01-06T03:01:22.545Z,11.80
2023-01-06T03:06:26.502Z,12.20
2023-01-06T03:11:29.356Z,11.17
2023-01-06T03:16:31.190Z,11.50
2023-01-06T03:21:35.914Z,10.00
2023-01-06T03:26:39.175Z,10.77
2023-01-06T03:31:46.923Z,9.53
2023-01-06T03:36:53.125Z,9.93
2023-01-06T03:42:31.470Z,9.57
2023-01-06T03:47:39.191Z,9.23
2023-01-06T03:52:43.345Z,8.00
2023-01-06T03:57:46.406Z,8.67
2023-01-06T04:02:48.667Z,8.00
2023-01-06T04:07:55.171Z,6.93
2023-01-06T04:12:58.020Z,6.20
2023-01-06T04:18:04.380Z,6.00
2023-01-06T04:23:10.743Z,6.20
2023-01-06T04:28:14.914Z,6.40
2023-01-06T04:33:17.837Z,5.73
2023-01-06T04:38:23.858Z,5.50
2023-01-06T04:43:25.497Z,5.20
2023-01-06T04:48:27.179Z,4.83
2023-01-06T04:53:30.363Z,5.17
2023-01-06T04:58:32.041Z,5.43
2023-01-06T05:03:35.177Z,5.10
2023-01-06T05:08:38.455Z,4.90
2023-01-06T05:13:40.255Z,4.70
2023-01-06T05:18:42.024Z,4.93
2023-01-06T05:23:45.309Z,4.53
2023-01-06T05:28:47.103Z,4.27
2023-01-06T05:33:48.895Z,3.83
2023-01-06T05:38:55.086Z,3.60
2023-01-06T05:43:57.396Z,3.50
2023-01-06T05:49:00.143Z,3.23
2023-01-06T05:54:07.051Z,3.13
2023-01-06T05:59:08.763Z,4.77
2023-01-06T06:04:11.758Z,3.70
2023-01-06T06:09:15.047Z,2.90
2023-01-06T06:14:17.409Z,2.57
2023-01-06T06:19:19.212Z,3.10
2023-01-06T06:24:22.194Z,2.37
2023-01-06T06:29:23.880Z,2.57
2023-01-06T06:34:25.696Z,2.37
2023-01-06T06:39:28.691Z,2.83
2023-01-06T06:44:30.331Z,2.47
2023-01-06T06:49:32.055Z,1.97
2023-01-06T06:54:35.139Z,1.90
2023-01-06T06:59:36.849Z,1.70
2023-01-06T07:04:38.543Z,2.10
2023-01-06T07:09:41.581Z,1.80
2023-01-06T07:14:43.225Z,2.00
2023-01-06T07:19:45.127Z,1.43
2023-01-06T07:24:48.132Z,1.60
2023-01-06T07:29:49.794Z,1.90
2023-01-06T07:34:51.503Z,1.47
2023-01-06T07:39:54.506Z,1.43
2023-01-06T07:44:56.205Z,1.37
2023-01-06T07:49:57.991Z,1.20
2023-01-06T07:55:01.017Z,2.10
2023-01-06T08:00:03.424Z,1.30
2023-01-06T08:05:13.680Z,1.60
2023-01-06T08:10:16.800Z,1.50
2023-01-06T08:15:18.960Z,1.47
2023-01-06T08:20:20.823Z,1.37
2023-01-06T08:25:23.888Z,1.20
2023-01-06T08:30:25.589Z,1.13
2023-01-06T08:35:27.317Z,2.73
2023-01-06T08:40:30.365Z,1.27
2023-01-06T08:45:32.057Z,1.60
2023-01-06T08:50:33.726Z,1.60
2023-01-06T08:55:39.275Z,1.20
2023-01-06T09:00:41.362Z,1.80
2023-01-06T09:05:43.057Z,1.50
2023-01-06T09:10:46.059Z,1.80
2023-01-06T09:15:48.936Z,1.70
2023-01-06T09:20:50.761Z,1.60
2023-01-06T09:25:54.339Z,1.50
2023-01-06T09:30:56.049Z,1.87
2023-01-06T09:35:57.809Z,1.70
2023-01-06T09:41:38.106Z,1.87
2023-01-06T09:46:41.105Z,1.97
2023-01-06T09:51:42.805Z,1.60
2023-01-06T09:56:49.050Z,2.03
2023-01-06T10:01:50.923Z,2.10
2023-01-06T10:06:55.395Z,2.10
2023-01-06T10:12:02.057Z,2.27
2023-01-06T10:17:15.130Z,2.30
2023-01-06T10:22:19.077Z,1.90
2023-01-06T10:27:26.761Z,1.90
2023-01-06T10:32:29.665Z,2.53
2023-01-06T10:37:36.966Z,2.00
2023-01-06T10:42:57.201Z,1.80
2023-01-06T10:47:59.109Z,1.50
2023-01-06T10:53:00.904Z,1.47
2023-01-06T10:58:13.060Z,1.33
2023-01-06T11:03:32.310Z,1.47
2023-01-06T11:08:35.611Z,1.17
2023-01-06T11:13:39.379Z,1.57
2023-01-06T11:18:41.050Z,1.20
2023-01-06T11:23:43.432Z,1.40
2023-01-06T11:28:47.045Z,1.40
2023-01-06T11:33:51.137Z,1.30
2023-01-06T11:38:55.290Z,1.70
2023-01-06T11:44:05.785Z,1.70
2023-01-06T11:49:10.814Z,1.90
2023-01-06T11:54:22.331Z,1.60
2023-01-06T11:59:25.469Z,1.80
2023-01-06T12:04:30.121Z,1.70
2023-01-06T12:09:33.601Z,1.80
2023-01-06T12:14:37.658Z,1.93
2023-01-06T12:19:40.701Z,3.97
2023-01-06T12:24:42.488Z,2.77
2023-01-06T12:29:45.513Z,2.37
2023-01-06T12:34:48.643Z,3.00
2023-01-06T12:39:53.643Z,2.63
2023-01-06T12:44:58.393Z,2.60
2023-01-06T12:50:04.286Z,2.47
2023-01-06T12:55:06.720Z,2.70
2023-01-06T13:00:22.509Z,2.70
2023-01-06T13:05:39.299Z,2.30
2023-01-06T13:10:44.048Z,1.90
2023-01-06T13:15:47.025Z,2.00
2023-01-06T13:20:49.887Z,2.20
2023-01-06T13:26:17.272Z,1.90
2023-01-06T13:31:33.399Z,2.00
2023-01-06T13:37:01.310Z,1.80
2023-01-06T13:42:04.291Z,1.80
2023-01-06T13:47:09.360Z,1.93
2023-01-06T13:52:16.454Z,1.63
2023-01-06T13:57:24.785Z,2.20
2023-01-06T14:03:01.731Z,2.00
2023-01-06T14:08:04.177Z,2.20
2023-01-06T14:13:16.105Z,1.80
2023-01-06T14:18:30.206Z,1.60
2023-01-06T14:23:31.865Z,1.60
2023-01-06T14:28:33.907Z,1.30
2023-01-06T14:33:36.965Z,1.80
2023-01-06T14:38:42.454Z,2.17
2023-01-06T14:43:50.156Z,1.70
2023-01-06T14:48:55.677Z,2.33
2023-01-06T14:54:00.019Z,2.90
2023-01-06T14:59:08.786Z,6.47
2023-01-06T15:04:23.290Z,20.77
2023-01-06T15:09:25.009Z,19.20
2023-01-06T15:14:28.251Z,6.97
2023-01-06T15:19:31.302Z,14.37
2023-01-06T15:24:35.385Z,9.13
2023-01-06T15:29:37.138Z,6.00
2023-01-06T15:34:42.650Z,5.40
2023-01-06T15:39:44.410Z,1.70
2023-01-06T15:44:53.949Z,1.50
2023-01-06T15:49:57.342Z,1.30
2023-01-06T15:55:00.595Z,0.97
2023-01-06T16:00:03.975Z,1.30
2023-01-06T16:05:36.607Z,1.10
2023-01-06T16:10:39.726Z,0.97
2023-01-06T16:15:45.312Z,1.00
2023-01-06T16:20:47.142Z,1.20
2023-01-06T16:25:51.690Z,1.90
2023-01-06T16:31:12.098Z,1.10
2023-01-06T16:36:15.138Z,1.23
2023-01-06T16:41:18.868Z,1.40
2023-01-06T16:46:22.231Z,1.20
2023-01-06T16:51:23.999Z,1.40
2023-01-06T16:56:27.100Z,1.53
2023-01-06T17:01:28.876Z,2.93
2023-01-06T17:06:30.857Z,1.63
2023-01-06T17:11:34.452Z,8.97
2023-01-06T17:16:36.504Z,4.30
2023-01-06T17:21:38.730Z,5.27
2023-01-06T17:26:42.638Z,3.30
2023-01-06T17:31:45.183Z,2.20
2023-01-06T17:36:48.043Z,2.40
2023-01-06T17:41:51.884Z,14.07
2023-01-06T17:46:53.642Z,6.53
2023-01-06T17:51:55.941Z,2.70
2023-01-06T17:56:59.273Z,2.60
2023-01-06T18:02:01.346Z,4.50
2023-01-06T18:07:08.120Z,2.20
2023-01-06T18:12:12.536Z,15.40
2023-01-06T18:17:17.376Z,4.53
2023-01-06T18:22:20.218Z,4.30
2023-01-06T18:27:24.308Z,3.97
2023-01-06T18:32:28.455Z,3.63
2023-01-06T18:37:31.496Z,22.40
2023-01-06T18:42:35.166Z,7.27
2023-01-06T18:47:37.816Z,6.90
2023-01-06T18:52:41.247Z,20.80
2023-01-06T18:57:45.890Z,17.70
2023-01-06T19:02:50.582Z,43.20
2023-01-06T19:07:52.265Z,22.60
2023-01-06T19:12:55.564Z,14.67
2023-01-06T19:17:57.270Z,12.30
2023-01-06T19:22:58.984Z,11.67
2023-01-06T19:28:02.540Z,17.17
2023-01-06T19:33:19.346Z,14.83
2023-01-06T19:38:25.391Z,13.90
2023-01-06T19:43:30.300Z,14.33
2023-01-06T19:48:36.390Z,19.80
2023-01-06T19:53:41.784Z,16.50
2023-01-06T19:58:46.512Z,15.57
2023-01-06T20:03:48.516Z,16.63
2023-01-06T20:08:53.162Z,17.50
2023-01-06T20:13:56.163Z,19.00
2023-01-06T20:18:57.878Z,20.43
2023-01-06T20:23:59.619Z,18.60
2023-01-06T20:29:04.164Z,19.10
2023-01-06T20:34:05.994Z,19.90
2023-01-06T20:39:07.737Z,18.80
2023-01-06T20:44:13.058Z,18.40
2023-01-06T20:49:16.960Z,19.40
2023-01-06T20:54:18.682Z,20.57
2023-01-06T20:59:21.799Z,19.87
2023-01-06T21:04:23.536Z,20.50
2023-01-06T21:09:29.336Z,20.27
2023-01-06T21:14:33.933Z,18.30
2023-01-06T21:19:35.674Z,17.60
2023-01-06T21:24:37.432Z,17.43
2023-01-06T21:29:40.534Z,15.13
2023-01-06T21:34:42.500Z,15.40
2023-01-06T21:39:46.020Z,13.80
2023-01-06T21:44:50.836Z,12.87
2023-01-06T21:49:52.479Z,13.27
2023-01-06T21:54:54.496Z,11.57
2023-01-06T21:59:57.547Z,10.43
2023-01-06T22:05:02.660Z,11.93
2023-01-06T22:10:06.090Z,11.53
2023-01-06T22:15:09.849Z,11.10
2023-01-06T22:20:11.734Z,10.60
2023-01-06T22:25:13.460Z,11.83
2023-01-06T22:30:16.756Z,13.60
2023-01-06T22:35:18.562Z,11.20
2023-01-06T22:40:20.300Z,11.13
2023-01-06T22:45:23.354Z,10.10
2023-01-06T22:50:25.073Z,10.10
2023-01-06T22:55:26.765Z,8.83
2023-01-06T23:00:29.779Z,7.27
2023-01-06T23:05:31.480Z,6.73
2023-01-06T23:10:34.937Z,6.90
2023-01-06T23:15:38.066Z,7.67
2023-01-06T23:20:39.778Z,6.40
2023-01-06T23:25:41.517Z,7.17
2023-01-06T23:30:44.607Z,6.10
2023-01-06T23:35:46.345Z,6.10
2023-01-06T23:40:48.056Z,7.10
2023-01-06T23:45:51.117Z,7.70
2023-01-06T23:50:52.791Z,8.00
2023-01-06T23:55:55.464Z,8.00
